createdAt,value
2023-03-23T15:58:21.283Z,62.48
2023-03-23T15:59:28.294Z,62.35
2023-03-23T16:00:21.288Z,62.55
2023-03-23T16:01:21.347Z,62.76
2023-03-23T16:02:29.343Z,63.06
2023-03-23T16:03:28.570Z,62.68
2023-03-23T16:04:21.249Z,62.99
2023-03-23T16:05:21.217Z,63.39
2023-03-23T16:06:24.977Z,62.68
2023-03-23T16:07:21.304Z,63.19
2023-03-23T16:08:21.204Z,62.48
2023-03-23T16:09:21.163Z,62.59
2023-03-23T16:10:21.176Z,62.41
2023-03-23T16:11:21.132Z,62.62
2023-03-23T16:12:21.198Z,62.41
2023-03-23T16:13:21.136Z,62.92
2023-03-23T16:14:21.110Z,63.42
2023-03-23T16:15:21.129Z,63.42
2023-03-23T16:16:21.234Z,62.82
2023-03-23T16:17:21.447Z,63.02
2023-03-23T16:18:21.072Z,63.15
2023-03-23T16:19:21.053Z,63.05
2023-03-23T16:20:21.542Z,63.82
2023-03-23T16:21:21.092Z,63.22
2023-03-23T16:22:21.038Z,63.32
2023-03-23T16:23:21.012Z,63.42
2023-03-23T16:24:21.048Z,62.92
2023-03-23T16:25:22.861Z,63.12
2023-03-23T16:26:20.979Z,63.73
2023-03-23T16:27:20.984Z,63.52
2023-03-23T16:28:20.974Z,63.22
2023-03-23T16:29:40.165Z,63.35
2023-03-23T16:30:21.954Z,63.45
2023-03-23T16:31:20.967Z,63.55
2023-03-23T16:32:20.965Z,64.06
2023-03-23T16:33:21.000Z,64.26
2023-03-23T16:34:23.882Z,64.29
2023-03-23T16:35:21.235Z,64.19
2023-03-23T16:36:21.917Z,63.99
2023-03-23T16:37:20.887Z,63.99
2023-03-23T16:38:20.863Z,64.09
2023-03-23T16:39:20.847Z,64.39
2023-03-23T16:40:20.831Z,64.09
2023-03-23T16:41:20.814Z,63.89
2023-03-23T16:42:20.821Z,63.68
2023-03-23T16:43:20.790Z,63.21
2023-03-23T16:44:23.506Z,63.38
2023-03-23T16:45:20.871Z,63.51
2023-03-23T16:46:20.844Z,63.31
2023-03-23T16:47:20.741Z,63.41
2023-03-23T16:48:20.717Z,63.61
2023-03-23T16:49:20.998Z,63.71
2023-03-23T16:50:20.743Z,63.71
2023-03-23T16:51:20.761Z,63.51
2023-03-23T16:52:21.069Z,63.61
2023-03-23T16:53:20.678Z,63.71
2023-03-23T16:54:20.673Z,63.64
2023-03-23T16:55:20.656Z,63.64
2023-03-23T16:56:21.081Z,63.84
2023-03-23T16:57:22.388Z,63.54
2023-03-23T16:58:20.614Z,63.64
2023-03-23T16:59:20.940Z,64.04
2023-03-23T17:00:21.691Z,63.95
2023-03-23T17:01:20.625Z,63.98
2023-03-23T17:02:20.715Z,63.78
2023-03-23T17:03:20.696Z,64.18
2023-03-23T17:04:20.632Z,64.28
2023-03-23T17:05:20.625Z,63.67
2023-03-23T17:06:20.550Z,64.18
2023-03-23T17:07:20.551Z,64.69
2023-03-23T17:08:20.861Z,64.31
2023-03-23T17:09:20.552Z,64.51
2023-03-23T17:10:20.548Z,64.51
2023-03-23T17:11:20.922Z,64.82
2023-03-23T17:12:20.795Z,64.92
2023-03-23T17:13:23.403Z,65.02
2023-03-23T17:14:20.496Z,65.25
2023-03-23T17:15:23.224Z,65.36
2023-03-23T17:16:20.473Z,65.36
2023-03-23T17:17:20.778Z,65.76
2023-03-23T17:18:22.322Z,65.66
2023-03-23T17:19:20.709Z,65.76
2023-03-23T17:20:20.697Z,66.06
2023-03-23T17:21:20.436Z,65.96
2023-03-23T17:22:20.391Z,66.06
2023-03-23T17:23:23.193Z,66.67
2023-03-23T17:24:20.392Z,66.30
2023-03-23T17:25:20.379Z,66.30
2023-03-23T17:26:20.607Z,66.70
2023-03-23T17:27:20.319Z,66.70
2023-03-23T17:33:09.403Z,67.11
2023-03-23T17:34:08.993Z,66.70
2023-03-23T17:35:10.880Z,66.80
2023-03-23T17:36:11.059Z,67.00
2023-03-23T17:37:08.997Z,67.11
2023-03-23T17:38:08.959Z,67.31
2023-03-23T17:39:08.962Z,67.11
2023-03-23T17:40:08.943Z,67.31
2023-03-23T17:41:08.959Z,67.44
2023-03-23T17:42:08.946Z,67.44
2023-03-23T17:43:08.898Z,67.34
2023-03-23T17:44:09.060Z,67.65
2023-03-23T17:45:10.720Z,68.26
2023-03-23T17:46:09.301Z,67.75
2023-03-23T17:47:08.889Z,67.95
2023-03-23T17:48:15.900Z,68.05
2023-03-23T17:49:17.213Z,68.26
2023-03-23T17:50:18.455Z,68.46
2023-03-23T17:51:18.919Z,68.66
2023-03-23T17:52:17.644Z,68.90
2023-03-23T17:53:08.844Z,68.79
2023-03-23T17:54:08.808Z,68.90
2023-03-23T17:55:09.821Z,69.10
2023-03-23T17:56:08.810Z,68.90
2023-03-23T17:57:10.003Z,68.90
2023-03-23T17:58:08.751Z,68.79
2023-03-23T17:59:08.733Z,68.70
2023-03-23T18:00:09.018Z,68.70
2023-03-23T18:01:08.830Z,68.96
2023-03-23T18:02:08.769Z,69.10
2023-03-23T18:03:08.705Z,69.00
2023-03-23T18:04:08.824Z,69.20
2023-03-23T18:05:09.019Z,69.20
2023-03-23T18:06:08.655Z,69.20
2023-03-23T18:07:08.651Z,69.30
2023-03-23T18:08:09.165Z,69.51
2023-03-23T18:09:08.614Z,69.40
2023-03-23T18:10:11.413Z,69.60
2023-03-23T18:11:08.624Z,69.71
2023-03-23T18:12:08.593Z,69.51
2023-03-23T18:13:08.599Z,69.51
2023-03-23T18:14:08.548Z,69.71
2023-03-23T18:15:08.580Z,69.71
2023-03-23T18:16:08.819Z,69.71
2023-03-23T18:17:10.283Z,69.81
2023-03-23T18:18:08.514Z,69.60
2023-03-23T18:19:08.515Z,69.60
2023-03-23T18:20:08.529Z,69.81
2023-03-23T18:21:08.511Z,69.71
2023-03-23T18:22:09.494Z,69.81
2023-03-23T18:24:21.046Z,69.91
2023-03-23T18:25:21.019Z,70.01
2023-03-23T18:26:21.040Z,70.01
2023-03-23T18:27:21.056Z,70.01
2023-03-23T18:28:23.680Z,70.01
2023-03-23T18:29:20.940Z,70.21
2023-03-23T18:30:20.976Z,70.11
2023-03-23T18:31:21.443Z,70.11
2023-03-23T18:32:21.257Z,70.01
2023-03-23T18:33:20.970Z,70.21
2023-03-23T18:34:20.875Z,70.32
2023-03-23T18:35:20.941Z,70.32
2023-03-23T18:36:20.966Z,70.21
2023-03-23T18:37:20.843Z,70.21
2023-03-23T18:38:20.894Z,70.32
2023-03-23T18:39:20.837Z,70.62
2023-03-23T18:40:20.864Z,70.21
2023-03-23T18:41:20.849Z,70.21
2023-03-23T18:42:20.797Z,70.42
2023-03-23T18:43:23.567Z,70.42
2023-03-23T18:44:22.655Z,70.52
2023-03-23T18:45:20.821Z,70.62
2023-03-23T18:46:20.798Z,70.72
2023-03-23T18:47:20.744Z,70.83
2023-03-23T18:48:20.745Z,70.83
2023-03-23T18:49:21.004Z,70.83
2023-03-23T18:50:20.758Z,71.23
2023-03-23T18:51:20.966Z,71.13
2023-03-23T18:52:20.669Z,71.33
2023-03-23T18:53:22.398Z,71.64
2023-03-23T18:54:20.953Z,71.13
2023-03-23T18:55:21.704Z,71.23
2023-03-23T18:56:21.977Z,71.03
2023-03-23T18:57:21.928Z,71.03
2023-03-23T18:58:20.626Z,71.13
2023-03-23T18:59:20.588Z,71.03
2023-03-23T19:00:20.582Z,71.23
2023-03-23T19:01:20.617Z,71.23
2023-03-23T19:02:20.651Z,71.33
2023-03-23T19:03:20.951Z,71.44
2023-03-23T19:04:21.575Z,71.33
2023-03-23T19:05:20.536Z,71.33
2023-03-23T19:06:20.793Z,71.33
2023-03-23T19:07:20.566Z,71.33
2023-03-23T19:08:20.509Z,71.44
2023-03-23T19:09:20.514Z,71.53
2023-03-23T19:10:20.504Z,71.64
2023-03-23T19:11:20.454Z,71.64
2023-03-23T19:12:20.503Z,71.64
2023-03-23T19:13:20.437Z,71.64
2023-03-23T19:14:20.449Z,71.64
2023-03-23T19:15:20.530Z,71.64
2023-03-23T19:16:20.426Z,71.53
2023-03-23T19:17:20.410Z,71.53
2023-03-23T19:18:20.390Z,71.53
2023-03-23T19:19:20.499Z,71.53
2023-03-23T19:20:39.492Z,71.44
2023-03-23T19:21:25.729Z,71.44
2023-03-23T19:22:20.340Z,71.64
2023-03-23T19:23:20.313Z,71.84
2023-03-23T19:24:20.354Z,71.94
2023-03-23T19:25:21.012Z,72.28
2023-03-23T19:26:20.331Z,72.28
2023-03-23T19:27:21.031Z,72.48
2023-03-23T19:29:03.833Z,72.69
2023-03-23T19:31:45.745Z,72.99
2023-03-23T19:32:43.770Z,72.89
2023-03-23T19:33:43.628Z,73.09
2023-03-23T19:34:43.659Z,73.19
2023-03-23T19:36:53.791Z,73.19
2023-03-23T19:37:46.643Z,73.33
2023-03-23T19:38:55.183Z,73.22
2023-03-23T19:39:46.102Z,73.33
2023-03-23T19:40:45.819Z,73.43
2023-03-23T19:41:47.044Z,73.53
2023-03-23T19:42:45.525Z,73.63
2023-03-23T19:43:45.768Z,73.53
2023-03-23T19:44:46.290Z,73.83
2023-03-23T19:45:47.985Z,73.63
2023-03-23T19:46:45.359Z,74.04
2023-03-23T19:47:47.980Z,74.04
2023-03-23T19:48:46.607Z,73.83
2023-03-23T19:49:45.402Z,73.83
2023-03-23T19:50:49.318Z,73.83
2023-03-23T19:51:52.326Z,73.74
2023-03-23T19:52:46.174Z,73.94
2023-03-23T19:53:45.142Z,73.83
2023-03-23T19:54:46.085Z,73.83
2023-03-23T19:55:45.192Z,73.83
2023-03-23T19:56:45.462Z,74.04
2023-03-23T19:57:47.936Z,74.04
2023-03-23T19:58:45.411Z,74.04
2023-03-23T19:59:45.109Z,73.94
2023-03-23T20:00:45.839Z,74.14
2023-03-23T20:01:45.434Z,74.04
2023-03-23T20:02:45.496Z,74.24
2023-03-23T20:03:45.779Z,74.14
2023-03-23T20:04:46.043Z,74.24
2023-03-23T20:05:49.046Z,74.24
2023-03-23T20:06:46.203Z,74.14
2023-03-23T20:07:48.714Z,74.28
2023-03-23T20:08:46.372Z,74.18
2023-03-23T20:09:45.338Z,74.48
2023-03-23T20:10:44.954Z,74.38
2023-03-23T20:11:45.213Z,74.48
2023-03-23T20:12:45.517Z,74.68
2023-03-23T20:13:45.258Z,74.68
2023-03-23T20:14:45.611Z,74.58
2023-03-23T20:15:45.043Z,74.58
2023-03-23T20:16:46.615Z,74.68
2023-03-23T20:17:44.925Z,74.88
2023-03-23T20:18:46.770Z,74.79
2023-03-23T20:19:45.486Z,75.09
2023-03-23T20:20:44.908Z,75.19
2023-03-23T20:21:44.815Z,75.19
2023-03-23T20:23:55.297Z,75.29
2023-03-23T20:24:55.535Z,75.19
2023-03-23T20:25:56.638Z,75.09
2023-03-23T20:26:55.627Z,75.09
2023-03-23T20:27:55.145Z,75.09
2023-03-23T20:28:54.777Z,75.09
2023-03-23T20:29:55.369Z,75.19
2023-03-23T20:31:19.754Z,75.19
2023-03-23T20:31:55.725Z,75.09
2023-03-23T20:32:54.741Z,75.09
2023-03-23T20:34:00.182Z,75.29
2023-03-23T20:34:55.722Z,75.19
2023-03-23T20:35:54.730Z,75.19
2023-03-23T20:36:54.698Z,75.40
2023-03-23T20:37:54.656Z,75.70
2023-03-23T20:38:54.648Z,75.70
2023-03-23T20:39:54.655Z,75.40
2023-03-23T20:40:54.626Z,75.60
2023-03-23T20:41:54.693Z,75.70
2023-03-23T20:42:54.886Z,75.70
2023-03-23T20:43:54.605Z,75.73
2023-03-23T20:44:56.358Z,75.94
2023-03-23T20:45:54.564Z,75.80
2023-03-23T20:46:54.559Z,75.70
2023-03-23T20:47:54.627Z,75.80
2023-03-23T20:48:54.543Z,76.01
2023-03-23T20:49:54.549Z,75.80
2023-03-23T20:50:54.514Z,75.80
2023-03-23T20:51:54.502Z,76.14
2023-03-23T20:52:54.494Z,76.21
2023-03-23T20:53:54.476Z,76.31
2023-03-23T20:54:54.476Z,76.34
2023-03-23T20:55:54.692Z,76.21
2023-03-23T20:56:56.116Z,76.31
2023-03-23T20:57:54.469Z,76.31
2023-03-23T20:58:54.424Z,76.41
2023-03-23T20:59:54.414Z,76.51
2023-03-23T21:00:54.429Z,76.61
2023-03-23T21:01:54.405Z,76.61
2023-03-23T21:02:54.463Z,76.51
2023-03-23T21:03:54.418Z,76.51
2023-03-23T21:04:54.347Z,76.72
2023-03-23T21:05:54.647Z,76.61
2023-03-23T21:06:54.365Z,76.61
2023-03-23T21:07:54.336Z,76.82
2023-03-23T21:08:54.295Z,76.82
2023-03-23T21:09:54.298Z,76.82
2023-03-23T21:10:54.278Z,76.82
2023-03-23T21:11:54.270Z,76.82
2023-03-23T21:12:54.284Z,76.72
2023-03-23T21:13:54.274Z,76.92
2023-03-23T21:14:54.251Z,76.51
2023-03-23T21:15:54.254Z,76.61
2023-03-23T21:16:54.213Z,76.51
2023-03-23T21:17:54.306Z,76.17
2023-03-23T21:18:54.219Z,75.97
2023-03-23T21:19:54.165Z,75.87
2023-03-23T21:20:54.171Z,75.87
2023-03-23T21:21:56.398Z,75.67
2023-03-23T21:23:03.018Z,75.36
2023-03-23T21:24:04.926Z,75.26
2023-03-23T21:25:02.468Z,75.16
2023-03-23T21:26:01.482Z,74.92
2023-03-23T21:27:02.002Z,74.71
2023-03-23T21:28:02.439Z,74.62
2023-03-23T21:29:01.505Z,74.71
2023-03-23T21:29:54.044Z,74.51
2023-03-23T21:30:54.107Z,74.51
2023-03-23T21:32:08.314Z,74.51
2023-03-23T21:32:55.074Z,74.51
2023-03-23T21:33:54.001Z,74.71
2023-03-23T21:34:56.835Z,74.31
2023-03-23T21:35:54.168Z,74.41
2023-03-23T21:36:53.986Z,74.01
2023-03-23T21:37:53.956Z,74.10
2023-03-23T21:38:53.957Z,74.01
2023-03-23T21:39:53.974Z,74.10
2023-03-23T21:40:54.250Z,74.21
2023-03-23T21:41:53.950Z,74.01
2023-03-23T21:42:53.911Z,74.21
2023-03-23T21:43:53.894Z,74.01
2023-03-23T21:44:53.901Z,74.01
2023-03-23T21:45:53.887Z,73.90
2023-03-23T21:46:53.869Z,73.80
2023-03-23T21:47:53.905Z,73.77
2023-03-23T21:48:53.852Z,73.80
2023-03-23T21:49:53.827Z,73.66
2023-03-23T21:50:53.825Z,73.87
2023-03-23T21:51:53.800Z,73.80
2023-03-23T21:52:53.824Z,73.80
2023-03-23T21:53:53.758Z,73.80
2023-03-23T21:54:53.754Z,73.87
2023-03-23T21:55:53.756Z,73.77
2023-03-23T21:56:53.779Z,74.07
2023-03-23T21:57:53.737Z,74.01
2023-03-23T21:58:53.766Z,74.10
2023-03-23T21:59:53.700Z,74.01
2023-03-23T22:00:53.707Z,74.21
2023-03-23T22:01:53.744Z,74.21
2023-03-23T22:02:53.696Z,74.41
2023-03-23T22:03:53.676Z,74.62
2023-03-23T22:04:53.639Z,74.62
2023-03-23T22:05:53.649Z,74.62
2023-03-23T22:06:53.616Z,74.71
2023-03-23T22:07:53.608Z,74.92
2023-03-23T22:08:53.653Z,74.82
2023-03-23T22:09:53.576Z,74.82
2023-03-23T22:11:00.539Z,74.92
2023-03-23T22:11:54.570Z,74.92
2023-03-23T22:12:55.518Z,75.02
2023-03-23T22:13:53.546Z,75.22
2023-03-23T22:14:53.579Z,75.22
2023-03-23T22:15:53.529Z,75.22
2023-03-23T22:16:53.514Z,75.22
2023-03-23T22:17:53.551Z,75.52
2023-03-23T22:18:53.478Z,75.73
2023-03-23T22:19:53.452Z,75.83
2023-03-23T22:20:53.468Z,75.93
2023-03-23T22:21:53.437Z,75.93
2023-03-23T22:22:53.427Z,76.14
2023-03-23T22:23:53.463Z,76.14
2023-03-23T22:24:53.420Z,76.24
2023-03-23T22:25:53.383Z,76.34
2023-03-23T22:26:53.399Z,76.44
2023-03-23T22:27:53.370Z,76.54
2023-03-23T22:28:53.369Z,76.54
2023-03-23T22:29:53.356Z,76.64
2023-03-23T22:30:53.328Z,76.85
2023-03-23T22:31:53.376Z,76.95
2023-03-23T22:32:53.352Z,77.05
2023-03-23T22:33:53.524Z,77.36
2023-03-23T22:34:53.283Z,77.29
2023-03-23T22:35:53.389Z,77.29
2023-03-23T22:36:53.269Z,77.39
2023-03-23T22:37:53.263Z,77.49
2023-03-23T22:38:53.242Z,77.49
2023-03-23T22:39:53.237Z,77.49
2023-03-23T22:40:53.245Z,77.59
2023-03-23T22:41:53.210Z,77.80
2023-03-23T22:42:53.213Z,77.70
2023-03-23T22:43:53.264Z,77.59
2023-03-23T22:44:53.191Z,77.70
2023-03-23T22:45:53.204Z,77.80
2023-03-23T22:46:53.196Z,78.10
2023-03-23T22:47:53.180Z,78.10
2023-03-23T22:48:53.467Z,78.10
2023-03-23T22:49:53.136Z,78.10
2023-03-23T22:50:53.105Z,78.10
2023-03-23T22:51:53.096Z,78.10
2023-03-23T22:52:53.126Z,78.10
2023-03-23T22:53:53.098Z,78.10
2023-03-23T22:54:53.073Z,78.20
2023-03-23T22:55:53.090Z,78.30
2023-03-23T22:56:53.130Z,78.20
2023-03-23T22:57:54.915Z,78.30
2023-03-23T22:58:53.357Z,78.20
2023-03-23T22:59:53.005Z,78.30
2023-03-23T23:00:53.029Z,78.30
2023-03-23T23:01:53.046Z,78.30
2023-03-23T23:02:54.853Z,78.20
2023-03-23T23:03:54.818Z,78.30
2023-03-23T23:04:52.961Z,78.30
2023-03-23T23:05:53.209Z,78.30
2023-03-23T23:07:03.003Z,78.41
2023-03-23T23:07:53.907Z,78.30
2023-03-23T23:08:52.949Z,78.20
2023-03-23T23:09:52.890Z,78.30
2023-03-23T23:10:52.859Z,78.30
2023-03-23T23:12:01.720Z,78.30
2023-03-23T23:13:00.891Z,78.30
2023-03-23T23:13:59.888Z,78.41
2023-03-23T23:15:01.726Z,78.41
2023-03-23T23:15:52.868Z,78.51
2023-03-23T23:16:53.221Z,78.61
2023-03-23T23:17:52.837Z,78.61
2023-03-23T23:18:53.043Z,78.71
2023-03-23T23:19:55.528Z,78.61
2023-03-23T23:20:52.751Z,78.61
2023-03-23T23:21:52.771Z,78.71
2023-03-23T23:22:52.732Z,78.71
2023-03-23T23:23:52.730Z,78.71
2023-03-23T23:24:52.722Z,78.91
2023-03-23T23:25:52.700Z,78.91
2023-03-23T23:26:53.002Z,78.91
2023-03-23T23:27:54.527Z,78.91
2023-03-23T23:28:52.713Z,79.02
2023-03-23T23:29:52.959Z,79.12
2023-03-23T23:30:52.661Z,79.12
2023-03-23T23:31:55.460Z,79.02
2023-03-23T23:32:52.661Z,79.12
2023-03-23T23:33:52.603Z,79.12
2023-03-23T23:34:54.411Z,79.12
2023-03-23T23:35:52.904Z,79.02
2023-03-23T23:36:52.839Z,79.12
2023-03-23T23:37:52.573Z,79.22
2023-03-23T23:38:52.559Z,79.22
2023-03-23T23:39:52.546Z,79.22
2023-03-23T23:40:52.524Z,79.12
2023-03-23T23:41:52.522Z,79.12
2023-03-23T23:42:52.522Z,79.12
2023-03-23T23:43:52.486Z,79.22
2023-03-23T23:44:52.492Z,79.02
2023-03-23T23:45:52.504Z,79.02
2023-03-23T23:46:52.517Z,79.02
2023-03-23T23:47:52.458Z,79.12
2023-03-23T23:48:52.465Z,79.22
2023-03-23T23:49:52.690Z,79.02
2023-03-23T23:50:52.403Z,79.02
2023-03-23T23:51:52.435Z,79.02
2023-03-23T23:52:52.415Z,78.91
2023-03-23T23:53:52.387Z,78.91
2023-03-23T23:54:52.376Z,78.81
2023-03-23T23:55:52.397Z,78.81
2023-03-23T23:56:52.427Z,78.88
2023-03-23T23:57:52.320Z,78.88
2023-03-23T23:58:52.381Z,78.98
2023-03-23T23:59:52.587Z,79.02
